Time;durP1;ratioP1;P1;durP2;ratioP2;P2;SDS_P1;SDS_P2;PMS_P1;PMS_P2;Temp;Humidity;BMP_temperature;BMP_pressure;BME280_temperature;BME280_humidity;BME280_pressure;Samples;Min_cycle;Max_cycle;Signal;HPM_P1;HPM_P2
2022/07/31 00:00:54;;;;;;;1.88;1.73;;;;;;;16.90;68.43;96105.53;5046324;28;20075;-63
2022/07/31 00:03:20;;;;;;;2.22;2.13;;;;;;;16.88;67.27;96104.88;5046869;28;20516;-63
2022/07/31 00:05:45;;;;;;;4.15;1.80;;;;;;;16.86;67.10;96104.22;5026843;28;20111;-63
2022/07/31 00:08:10;;;;;;;1.85;1.70;;;;;;;16.85;68.17;96098.06;5045376;28;20029;-63
2022/07/31 00:10:36;;;;;;;2.10;1.92;;;;;;;16.89;66.96;96099.34;5045427;28;20516;-63
2022/07/31 00:13:01;;;;;;;4.63;1.63;;;;;;;16.89;66.71;96104.69;5046263;28;20032;-63
2022/07/31 00:15:27;;;;;;;2.00;1.90;;;;;;;16.89;66.79;96101.22;5045834;28;20052;-63
2022/07/31 00:17:52;;;;;;;2.30;1.92;;;;;;;16.88;66.43;96099.56;5046741;28;20466;-63
2022/07/31 00:20:18;;;;;;;2.03;1.92;;;;;;;16.89;66.40;96103.88;5047404;28;20459;-63
2022/07/31 00:22:45;;;;;;;1.80;1.70;;;;;;;16.89;65.83;96099.34;5045775;28;20103;-63
2022/07/31 00:25:12;;;;;;;1.80;1.70;;;;;;;16.82;65.22;96103.72;5046397;28;20021;-63
2022/07/31 00:27:39;;;;;;;1.92;1.83;;;;;;;16.75;64.91;96098.25;5042657;28;20676;-63
2022/07/31 00:30:05;;;;;;;1.98;1.80;;;;;;;16.67;65.60;96110.72;5040323;28;20592;-63
2022/07/31 00:32:30;;;;;;;2.17;2.00;;;;;;;16.65;66.78;96112.72;5046454;28;20127;-63
2022/07/31 00:34:56;;;;;;;5.85;1.92;;;;;;;16.68;65.39;96117.69;5045124;28;20552;-63
2022/07/31 00:37:21;;;;;;;2.10;2.00;;;;;;;16.59;66.48;96117.72;5047398;28;20028;-63
2022/07/31 00:39:47;;;;;;;1.90;1.80;;;;;;;16.64;67.26;96116.38;5044046;28;20037;-63
2022/07/31 00:42:23;;;;;;;2.85;2.00;;;;;;;16.61;65.49;96114.91;5045588;28;20053;-63
2022/07/31 00:44:49;;;;;;;2.42;2.22;;;;;;;16.59;66.74;96109.75;5042030;28;20017;-63
2022/07/31 00:47:16;;;;;;;1.85;1.75;;;;;;;16.50;66.85;96116.09;5046604;28;20033;-63
2022/07/31 00:49:42;;;;;;;4.55;1.90;;;;;;;16.53;66.67;96118.41;5043470;28;20025;-63
2022/07/31 00:52:07;;;;;;;1.85;1.73;;;;;;;16.50;68.57;96113.44;5045001;28;20032;-63
2022/07/31 00:54:34;;;;;;;2.00;1.90;;;;;;;16.41;67.85;96117.94;5045892;28;20021;-63
2022/07/31 00:57:00;;;;;;;1.88;1.77;;;;;;;16.40;67.09;96123.41;5047449;28;20037;-63
2022/07/31 00:59:26;;;;;;;2.08;1.80;;;;;;;16.45;66.58;96119.25;5049605;28;20079;-63
2022/07/31 01:01:52;;;;;;;2.00;1.90;;;;;;;16.44;66.32;96117.59;5048216;28;20113;-63
2022/07/31 01:04:18;;;;;;;3.13;2.13;;;;;;;16.46;65.62;96115.59;5046511;28;20104;-63
2022/07/31 01:06:44;;;;;;;1.70;1.60;;;;;;;16.45;65.83;96121.06;5032638;28;20067;-63
2022/07/31 01:09:10;;;;;;;5.50;1.90;;;;;;;16.46;66.13;96122.72;5042974;28;20029;-63
2022/07/31 01:11:56;;;;;;;2.17;1.50;;;;;;;16.44;65.63;96122.91;5045976;28;20048;-63
2022/07/31 01:14:28;;;;;;;2.20;2.00;;;;;;;16.47;65.53;96127.06;5043379;28;20049;-63
2022/07/31 01:16:57;;;;;;;2.67;1.90;;;;;;;16.46;65.85;96126.22;5049905;28;20068;-63
2022/07/31 01:19:32;;;;;;;2.45;2.25;;;;;;;16.41;65.89;96125.06;5049231;28;20032;-63
2022/07/31 01:22:15;;;;;;;2.08;1.83;;;;;;;16.34;67.39;96124.91;5046494;28;20040;-63
2022/07/31 01:25:08;;;;;;;4.90;2.00;;;;;;;16.30;67.47;96127.09;5050791;28;20064;-63
2022/07/31 01:27:49;;;;;;;2.63;2.22;;;;;;;16.21;67.73;96121.94;5049611;28;20047;-63
2022/07/31 01:30:15;;;;;;;1.85;1.75;;;;;;;16.13;67.10;96125.41;5044154;28;20401;-63
2022/07/31 01:32:45;;;;;;;2.42;2.22;;;;;;;16.11;68.08;96122.91;5051463;28;20040;-63
2022/07/31 01:35:18;;;;;;;2.15;2.05;;;;;;;16.07;68.26;96128.75;5045727;28;20484;-63
2022/07/31 01:37:55;;;;;;;2.10;1.92;;;;;;;16.02;69.35;96127.41;5047910;28;20492;-63
2022/07/31 01:40:43;;;;;;;2.30;2.10;;;;;;;15.94;69.73;96124.75;5040269;28;20025;-63
2022/07/31 01:43:16;;;;;;;8.13;2.33;;;;;;;15.90;71.15;96123.44;5046111;28;20120;-63
2022/07/31 01:45:44;;;;;;;2.10;1.95;;;;;;;15.97;70.15;96127.06;5045786;28;20036;-63
2022/07/31 01:48:13;;;;;;;2.92;2.75;;;;;;;16.03;68.83;96131.75;5047008;28;20048;-63
2022/07/31 01:50:40;;;;;;;2.03;1.90;;;;;;;16.08;66.99;96130.41;5048486;28;20029;-63
2022/07/31 01:53:07;;;;;;;2.65;1.80;;;;;;;16.09;67.40;96126.75;5048311;28;20182;-63
2022/07/31 01:55:34;;;;;;;2.42;2.25;;;;;;;16.04;66.75;96119.28;5050140;28;20036;-63
2022/07/31 01:58:02;;;;;;;2.30;2.10;;;;;;;15.98;67.73;96117.28;5043770;28;20427;-63
2022/07/31 02:00:28;;;;;;;2.70;2.08;;;;;;;15.90;70.58;96116.28;5044108;28;20377;-63
2022/07/31 02:02:55;;;;;;;4.10;2.17;;;;;;;15.84;68.97;96113.44;5045300;28;20021;-63
2022/07/31 02:05:22;;;;;;;2.10;1.95;;;;;;;15.82;69.63;96128.72;5047993;28;20159;-63
2022/07/31 02:07:49;;;;;;;2.95;2.28;;;;;;;15.80;69.65;96126.19;5042369;28;20033;-63
2022/07/31 02:10:17;;;;;;;2.05;1.95;;;;;;;15.87;69.51;96131.69;5042716;28;20036;-63
2022/07/31 02:12:43;;;;;;;3.10;2.00;;;;;;;15.83;69.83;96125.88;5048355;28;20033;-63
2022/07/31 02:15:12;;;;;;;4.65;2.22;;;;;;;15.79;69.47;96126.34;5048339;28;20026;-63
2022/07/31 02:17:40;;;;;;;3.25;1.98;;;;;;;15.74;69.28;96127.69;5048233;28;20035;-63
2022/07/31 02:20:08;;;;;;;2.83;2.00;;;;;;;15.68;68.93;96130.16;5041968;28;20065;-63
2022/07/31 02:22:34;;;;;;;2.00;1.90;;;;;;;15.64;70.54;96134.97;5046615;28;20492;-63
2022/07/31 02:25:01;;;;;;;3.97;2.08;;;;;;;15.63;70.36;96137.78;5044960;28;20039;-63
2022/07/31 02:27:28;;;;;;;2.53;2.28;;;;;;;15.63;69.89;96128.00;5047049;28;20039;-63
2022/07/31 02:29:58;;;;;;;2.00;1.90;;;;;;;15.65;69.95;96133.97;5045737;28;20495;-63
2022/07/31 02:32:25;;;;;;;2.30;2.10;;;;;;;15.59;70.30;96132.78;5045147;28;20136;-63
2022/07/31 02:34:54;;;;;;;4.07;2.30;;;;;;;15.53;71.10;96132.63;5045658;28;20040;-63
2022/07/31 02:37:21;;;;;;;5.60;2.10;;;;;;;15.54;70.17;96137.78;5047904;28;20029;-63
2022/07/31 02:39:48;;;;;;;2.17;2.00;;;;;;;15.56;70.39;96134.94;5028705;28;20100;-63
2022/07/31 02:42:15;;;;;;;2.10;2.00;;;;;;;15.45;71.06;96128.97;5044728;28;20116;-63
2022/07/31 02:44:41;;;;;;;1.73;1.65;;;;;;;15.51;70.99;96130.13;5046911;28;20029;-63
2022/07/31 02:47:06;;;;;;;2.40;2.20;;;;;;;15.54;71.15;96123.66;5046559;28;20526;-63
2022/07/31 02:49:32;;;;;;;2.05;1.95;;;;;;;15.51;70.92;96123.97;5048189;28;20619;-63
2022/07/31 02:51:58;;;;;;;2.08;1.88;;;;;;;15.45;71.84;96125.47;5049894;28;20074;-63
2022/07/31 02:54:24;;;;;;;2.10;1.90;;;;;;;15.37;72.08;96120.97;5042232;28;20484;-63
2022/07/31 02:56:54;;;;;;;2.58;2.22;;;;;;;15.40;71.89;96128.63;5048869;28;20056;-63
2022/07/31 02:59:21;;;;;;;2.28;2.08;;;;;;;15.41;71.25;96130.28;5047452;28;20390;-63
2022/07/31 03:01:46;;;;;;;2.15;2.00;;;;;;;15.38;71.55;96135.91;5046444;28;20689;-63
2022/07/31 03:04:11;;;;;;;2.10;2.00;;;;;;;15.39;71.25;96120.81;5045830;28;20013;-63
2022/07/31 03:06:37;;;;;;;2.15;2.05;;;;;;;15.42;72.36;96123.13;5048618;28;20452;-63
2022/07/31 03:09:02;;;;;;;2.47;2.25;;;;;;;15.34;72.44;96113.31;5044998;28;20048;-63
2022/07/31 03:11:28;;;;;;;2.90;2.25;;;;;;;15.21;72.78;96110.31;5042004;28;20512;-63
2022/07/31 03:13:57;;;;;;;2.47;2.28;;;;;;;15.22;72.93;96106.66;5042761;28;20124;-63
2022/07/31 03:16:23;;;;;;;2.22;2.13;;;;;;;15.24;73.54;96112.66;5046091;28;20025;-63
2022/07/31 03:18:49;;;;;;;2.47;2.25;;;;;;;15.25;74.40;96111.66;5046220;28;20033;-63
2022/07/31 03:21:17;;;;;;;2.53;2.10;;;;;;;15.20;73.42;96117.44;5047701;28;20036;-63
2022/07/31 03:23:44;;;;;;;2.65;1.95;;;;;;;15.23;73.39;96113.63;5045562;28;20048;-63
2022/07/31 03:26:09;;;;;;;2.45;2.00;;;;;;;15.15;73.63;96117.09;5043167;28;20095;-63
2022/07/31 03:28:35;;;;;;;2.05;1.85;;;;;;;15.15;72.78;96117.94;5049222;28;20591;-63
2022/07/31 03:31:00;;;;;;;2.58;2.45;;;;;;;15.18;72.90;96116.75;5047238;28;20028;-63
2022/07/31 03:33:27;;;;;;;2.70;2.22;;;;;;;15.23;72.24;96117.09;5047566;28;20025;-63
2022/07/31 03:35:52;;;;;;;2.30;2.15;;;;;;;15.16;71.48;96122.25;5047742;28;20135;-63
2022/07/31 03:38:18;;;;;;;2.35;2.15;;;;;;;15.14;72.50;96118.06;5045642;28;20013;-63
2022/07/31 03:40:43;;;;;;;2.40;2.20;;;;;;;15.09;72.90;96107.94;5044174;28;20515;-63
2022/07/31 03:43:10;;;;;;;1.90;1.80;;;;;;;15.04;74.99;96118.19;5043947;28;20024;-63
2022/07/31 03:45:38;;;;;;;2.10;2.00;;;;;;;15.01;74.50;96116.69;5045789;28;20032;-63
2022/07/31 03:48:07;;;;;;;2.50;2.10;;;;;;;15.03;73.72;96114.75;5048620;28;20488;-63
2022/07/31 03:50:36;;;;;;;2.08;1.88;;;;;;;15.01;75.58;96118.53;5048423;28;20039;-63
2022/07/31 03:53:03;;;;;;;2.00;1.90;;;;;;;15.00;74.60;96114.22;5044718;28;20021;-63
2022/07/31 03:55:29;;;;;;;2.78;2.25;;;;;;;14.94;73.84;96106.91;5048488;28;20940;-63
2022/07/31 03:57:54;;;;;;;4.63;2.42;;;;;;;14.83;74.21;96108.84;5039771;28;20076;-63
2022/07/31 04:00:25;;;;;;;2.28;2.03;;;;;;;14.85;73.99;96106.03;5047681;28;20056;-63
2022/07/31 04:02:52;;;;;;;2.28;2.03;;;;;;;14.87;72.85;96104.88;5025832;28;20400;-63
2022/07/31 04:05:18;;;;;;;7.43;2.00;;;;;;;14.92;72.16;96106.22;5046179;28;20090;-63
2022/07/31 04:07:43;;;;;;;2.20;2.00;;;;;;;14.93;72.52;96102.59;5048321;28;20033;-63
2022/07/31 04:10:09;;;;;;;3.75;1.95;;;;;;;14.94;72.60;96105.06;5041685;28;20022;-63
2022/07/31 04:12:34;;;;;;;2.80;2.30;;;;;;;14.89;72.92;96104.72;5043921;28;20029;-63
2022/07/31 04:15:00;;;;;;;2.10;1.90;;;;;;;14.86;73.08;96097.09;5041932;28;20104;-63
2022/07/31 04:17:25;;;;;;;3.20;1.98;;;;;;;14.86;72.89;96103.22;5048555;28;20025;-63
2022/07/31 04:19:50;;;;;;;2.30;1.90;;;;;;;14.84;74.54;96109.69;5045223;28;20609;-63
2022/07/31 04:22:16;;;;;;;2.40;2.20;;;;;;;14.87;73.64;96117.31;5044941;28;20025;-63
2022/07/31 04:24:41;;;;;;;2.40;2.20;;;;;;;14.89;73.50;96112.69;5045238;28;20044;-63
2022/07/31 04:27:07;;;;;;;1.80;1.70;;;;;;;14.85;74.03;96116.63;5045583;28;20093;-63
2022/07/31 04:29:33;;;;;;;2.00;1.90;;;;;;;14.86;73.30;96118.31;5047041;28;20488;-63
2022/07/31 04:31:58;;;;;;;2.28;2.17;;;;;;;14.78;73.76;96116.44;5043363;28;20028;-63
2022/07/31 04:34:24;;;;;;;2.13;2.03;;;;;;;14.76;74.04;96115.75;5044804;28;20064;-63
2022/07/31 04:36:49;;;;;;;2.15;2.05;;;;;;;14.78;74.73;96118.25;5045987;28;20025;-63
2022/07/31 04:39:15;;;;;;;1.92;1.83;;;;;;;14.81;74.42;96121.41;5044914;28;20500;-63
2022/07/31 04:41:40;;;;;;;3.28;2.30;;;;;;;14.80;75.41;96119.75;5044441;28;20517;-63
2022/07/31 04:44:05;;;;;;;2.05;1.95;;;;;;;14.79;74.71;96126.03;5047873;28;20147;-63
2022/07/31 04:46:31;;;;;;;2.30;2.10;;;;;;;14.77;75.49;96122.72;5045431;28;20028;-63
2022/07/31 04:48:56;;;;;;;2.05;1.95;;;;;;;14.77;74.63;96122.72;5039893;28;20029;-63
2022/07/31 04:51:23;;;;;;;3.75;2.22;;;;;;;14.86;73.89;96128.91;5047328;28;20024;-63
2022/07/31 04:53:49;;;;;;;2.10;2.00;;;;;;;14.85;73.68;96125.41;5042332;28;20034;-63
2022/07/31 04:59:20;;;;;;;2.45;1.98;;;;;;;14.85;74.34;96125.41;5021311;28;20058;-63
2022/07/31 05:01:46;;;;;;;2.35;2.25;;;;;;;14.83;74.40;96123.91;5040315;28;20049;-63
2022/07/31 05:04:13;;;;;;;2.78;2.35;;;;;;;14.83;78.84;96124.72;5041036;28;20031;-63
2022/07/31 05:06:47;;;;;;;2.10;2.00;;;;;;;14.84;76.98;96117.63;5041861;28;20033;-63
2022/07/31 05:09:15;;;;;;;2.60;2.30;;;;;;;14.85;76.15;96121.94;5045683;28;20025;-63
2022/07/31 05:11:41;;;;;;;2.85;2.65;;;;;;;14.81;75.30;96123.22;5044355;28;20059;-63
2022/07/31 05:14:09;;;;;;;1.98;1.88;;;;;;;14.79;75.75;96127.84;5042901;28;20511;-63
2022/07/31 05:16:35;;;;;;;5.35;2.03;;;;;;;14.75;75.62;96116.75;5044273;28;20025;-63
2022/07/31 05:19:01;;;;;;;2.45;2.15;;;;;;;14.77;76.05;96120.06;5046251;28;20438;-63
2022/07/31 05:21:26;;;;;;;2.45;2.25;;;;;;;14.78;75.97;96112.94;5044341;28;20035;-63
2022/07/31 05:23:54;;;;;;;2.42;2.22;;;;;;;14.87;76.35;96109.34;5047714;28;20424;-63
2022/07/31 05:26:20;;;;;;;3.20;2.30;;;;;;;14.88;75.77;96111.00;5046624;28;20056;-63
2022/07/31 05:28:48;;;;;;;1.90;1.83;;;;;;;14.88;75.51;96118.97;5047324;28;20055;-64
2022/07/31 05:31:15;;;;;;;4.43;2.17;;;;;;;14.84;76.09;96114.97;5042263;28;20530;-63
2022/07/31 05:33:40;;;;;;;5.05;1.92;;;;;;;14.80;76.14;96119.75;5044846;28;20021;-63
2022/07/31 05:36:06;;;;;;;4.97;2.15;;;;;;;14.90;76.07;96114.34;5048317;28;20033;-63
2022/07/31 05:38:32;;;;;;;2.10;2.00;;;;;;;15.09;76.94;96102.63;5049613;28;20507;-63
2022/07/31 05:40:57;;;;;;;2.78;2.33;;;;;;;15.27;75.69;96109.66;5048092;28;20039;-63
2022/07/31 05:43:22;;;;;;;3.70;2.30;;;;;;;15.44;74.94;96108.72;5046822;28;20049;-63
2022/07/31 05:45:48;;;;;;;2.10;2.00;;;;;;;15.61;73.83;96112.22;5049047;28;20036;-63
2022/07/31 05:48:14;;;;;;;2.67;2.20;;;;;;;15.75;74.02;96110.75;5047828;28;20465;-63
2022/07/31 05:50:44;;;;;;;2.30;1.90;;;;;;;15.86;73.97;96108.78;5047449;28;20025;-63
2022/07/31 05:53:16;;;;;;;2.17;2.08;;;;;;;15.99;73.15;96111.78;5047940;28;20111;-63
2022/07/31 05:55:43;;;;;;;2.05;1.95;;;;;;;16.16;72.40;96119.78;5049831;28;20403;-64
2022/07/31 05:58:10;;;;;;;2.53;2.40;;;;;;;16.30;71.88;96116.44;5047751;28;20045;-64
2022/07/31 06:00:36;;;;;;;2.20;2.00;;;;;;;16.50;71.27;96129.38;5047377;28;20026;-64
2022/07/31 06:03:01;;;;;;;1.88;1.77;;;;;;;16.71;69.10;96122.72;5049363;28;20059;-64
2022/07/31 06:05:31;;;;;;;1.83;1.73;;;;;;;16.89;66.69;96123.28;5047468;28;20111;-63
2022/07/31 06:07:59;;;;;;;2.58;1.80;;;;;;;17.03;65.91;96121.81;5048765;28;20071;-63
2022/07/31 06:10:26;;;;;;;2.10;1.77;;;;;;;17.18;64.22;96129.88;5048325;28;20078;-63
2022/07/31 06:12:52;;;;;;;2.20;2.00;;;;;;;17.28;63.22;96135.00;5046146;28;20518;-64
2022/07/31 06:15:17;;;;;;;2.00;1.85;;;;;;;17.38;62.49;96132.13;5043688;28;20025;-63
2022/07/31 06:17:44;;;;;;;2.05;1.80;;;;;;;17.49;62.90;96130.06;5050717;28;20115;-64
2022/07/31 06:20:10;;;;;;;1.65;1.58;;;;;;;17.64;62.63;96125.66;5044847;28;20032;-64
2022/07/31 06:22:38;;;;;;;2.03;1.92;;;;;;;17.81;62.41;96128.22;5047510;28;20075;-64
2022/07/31 06:25:04;;;;;;;1.73;1.60;;;;;;;17.89;62.26;96125.50;5047740;28;20056;-64
2022/07/31 06:27:30;;;;;;;1.55;1.55;;;;;;;18.08;61.27;96124.22;5050148;28;20033;-64
2022/07/31 06:29:56;;;;;;;1.80;1.70;;;;;;;18.26;60.90;96131.91;5048822;28;20066;-64
2022/07/31 06:32:22;;;;;;;2.55;1.85;;;;;;;18.37;60.60;96124.47;5047606;28;20033;-63
2022/07/31 06:34:47;;;;;;;1.80;1.70;;;;;;;18.54;61.07;96127.81;5048320;28;20029;-64
2022/07/31 06:37:13;;;;;;;1.88;1.77;;;;;;;18.75;60.15;96121.78;5046818;28;20038;-63
2022/07/31 06:39:39;;;;;;;1.88;1.63;;;;;;;19.03;59.47;96116.69;5047086;28;20025;-63
2022/07/31 06:42:04;;;;;;;2.10;1.90;;;;;;;19.27;58.23;96122.72;5044369;28;20041;-63
2022/07/31 06:44:32;;;;;;;1.90;1.80;;;;;;;19.58;55.74;96118.16;5044935;28;20025;-63
2022/07/31 06:46:57;;;;;;;2.33;1.60;;;;;;;19.94;54.79;96119.97;5046623;28;20092;-63
2022/07/31 06:49:23;;;;;;;1.92;1.80;;;;;;;20.30;53.24;96120.91;5045460;28;20024;-63
2022/07/31 06:51:48;;;;;;;1.90;1.80;;;;;;;20.64;52.35;96113.16;5049954;28;20033;-64
2022/07/31 06:54:14;;;;;;;2.67;1.75;;;;;;;20.98;50.11;96117.72;5046836;28;20551;-64
2022/07/31 06:56:39;;;;;;;1.50;1.48;;;;;;;21.30;49.66;96114.56;5044367;28;20029;-64
2022/07/31 06:59:06;;;;;;;4.28;1.55;;;;;;;21.69;48.29;96114.97;5042739;28;20464;-64
2022/07/31 07:01:32;;;;;;;2.47;1.63;;;;;;;22.01;47.91;96107.19;5045333;28;20025;-64
2022/07/31 07:03:58;;;;;;;2.33;2.17;;;;;;;22.22;48.22;96113.41;5045003;28;20029;-64
2022/07/31 07:06:24;;;;;;;3.28;1.45;;;;;;;22.49;45.38;96108.91;5048151;28;20025;-63
2022/07/31 07:08:50;;;;;;;5.05;1.40;;;;;;;22.86;46.69;96101.19;5045618;28;20029;-64
2022/07/31 07:11:16;;;;;;;1.55;1.40;;;;;;;23.07;45.60;96101.97;5044299;28;20040;-63
2022/07/31 07:13:42;;;;;;;3.00;1.55;;;;;;;23.38;44.40;96107.66;5045894;28;20045;-64
2022/07/31 07:16:08;;;;;;;1.60;1.50;;;;;;;23.54;44.24;96114.41;5049266;28;20476;-64
2022/07/31 07:18:33;;;;;;;1.52;1.42;;;;;;;23.79;42.61;96111.81;5048092;28;20036;-64
2022/07/31 07:20:58;;;;;;;1.20;1.20;;;;;;;23.74;41.75;96108.97;5046027;28;20499;-64
2022/07/31 07:23:24;;;;;;;1.33;1.27;;;;;;;23.99;42.29;96109.03;5047464;28;20032;-66
2022/07/31 07:25:50;;;;;;;1.63;1.50;;;;;;;24.18;40.99;96114.47;5044048;28;20064;-66
2022/07/31 07:28:16;;;;;;;1.88;1.50;;;;;;;24.37;39.48;96115.41;5046727;28;20032;-66
2022/07/31 07:30:42;;;;;;;1.95;1.48;;;;;;;24.77;38.29;96114.25;5045414;28;20106;-65
2022/07/31 07:33:07;;;;;;;1.48;1.40;;;;;;;24.94;38.15;96117.16;5047547;28;20483;-65
2022/07/31 07:35:32;;;;;;;1.75;1.65;;;;;;;24.97;37.01;96121.31;5047299;28;20064;-66
2022/07/31 07:37:58;;;;;;;1.48;1.45;;;;;;;25.22;36.91;96109.63;5044519;28;20055;-64
2022/07/31 07:40:25;;;;;;;1.42;1.33;;;;;;;25.39;37.15;96112.53;5044721;28;20433;-67
2022/07/31 07:42:50;;;;;;;3.00;1.20;;;;;;;25.76;36.28;96114.41;5044969;28;20500;-65
2022/07/31 07:45:15;;;;;;;2.15;1.38;;;;;;;25.82;35.73;96111.59;5043084;28;20033;-66
2022/07/31 07:47:41;;;;;;;2.65;1.35;;;;;;;26.21;34.53;96111.28;5045834;28;20037;-66
2022/07/31 07:50:08;;;;;;;1.15;1.15;;;;;;;26.49;33.95;96119.75;5044988;28;20033;-65
2022/07/31 07:52:34;;;;;;;2.83;1.50;;;;;;;26.92;33.07;96110.53;5042492;28;20484;-65
2022/07/31 07:55:00;;;;;;;1.13;1.13;;;;;;;26.85;32.32;96110.63;5045721;28;20036;-65
2022/07/31 07:57:25;;;;;;;1.65;1.33;;;;;;;27.07;32.59;96110.03;5041995;28;20076;-65
2022/07/31 07:59:51;;;;;;;1.30;1.20;;;;;;;27.31;31.96;96108.13;5041878;28;20177;-65
2022/07/31 08:02:17;;;;;;;1.38;1.15;;;;;;;27.12;31.38;96107.47;5045419;28;20404;-66
2022/07/31 08:04:42;;;;;;;1.23;1.10;;;;;;;26.95;32.53;96095.75;5043459;28;20167;-66
2022/07/31 08:07:08;;;;;;;1.58;1.48;;;;;;;27.12;32.49;96093.97;5044708;28;20596;-66
2022/07/31 08:09:34;;;;;;;1.25;1.25;;;;;;;27.45;32.67;96087.03;5045624;28;20028;-66
2022/07/31 08:12:01;;;;;;;1.35;1.30;;;;;;;27.53;31.57;96088.59;5043420;28;20024;-65
2022/07/31 08:14:26;;;;;;;1.40;1.30;;;;;;;27.67;32.18;96089.09;5041310;28;20529;-66
2022/07/31 08:16:52;;;;;;;1.25;1.13;;;;;;;28.17;30.57;96086.78;5043804;28;20053;-66
2022/07/31 08:19:18;;;;;;;1.50;1.40;;;;;;;28.46;29.68;96097.53;5041457;28;20476;-66
2022/07/31 08:21:43;;;;;;;1.27;1.27;;;;;;;28.26;29.18;96096.13;5039715;28;20025;-66
2022/07/31 08:24:10;;;;;;;2.45;1.23;;;;;;;28.15;30.25;96099.69;5039753;28;20040;-66
2022/07/31 08:29:20;;;;;;;1.15;1.10;;;;;;;28.52;29.47;96096.56;5043977;28;20112;-66
2022/07/31 08:31:46;;;;;;;2.55;1.10;;;;;;;28.63;29.65;96084.00;5042554;28;20037;-68
2022/07/31 08:34:11;;;;;;;1.23;1.20;;;;;;;28.84;30.49;96093.25;5044131;28;20517;-67
2022/07/31 08:36:37;;;;;;;1.45;1.35;;;;;;;29.05;30.05;96092.72;5044156;28;20036;-66
2022/07/31 08:39:03;;;;;;;1.48;1.38;;;;;;;29.63;29.01;96090.47;5026348;28;20428;-65
2022/07/31 08:41:29;;;;;;;6.63;2.83;;;;;;;29.86;27.26;96088.53;5042882;28;20037;-65
2022/07/31 08:43:55;;;;;;;3.92;1.60;;;;;;;30.19;27.52;96085.91;5045531;28;20037;-65
2022/07/31 08:46:21;;;;;;;1.48;1.35;;;;;;;30.34;27.85;96085.19;5040306;28;20037;-66
2022/07/31 08:48:52;;;;;;;1.63;1.20;;;;;;;30.59;27.69;96082.69;5045551;28;20086;-67
2022/07/31 08:51:17;;;;;;;2.97;1.40;;;;;;;30.38;28.89;96089.88;5044493;28;20068;-64
2022/07/31 08:53:43;;;;;;;1.98;1.40;;;;;;;30.50;26.61;96081.53;5043676;28;20060;-66
2022/07/31 08:56:10;;;;;;;1.20;1.20;;;;;;;30.89;27.89;96085.09;5061715;28;20049;-65
2022/07/31 08:58:36;;;;;;;5.15;1.50;;;;;;;31.04;27.48;96081.63;5042540;28;20052;-63
2022/07/31 09:01:01;;;;;;;1.10;1.10;;;;;;;31.12;26.31;96079.22;5046684;28;20031;-63
2022/07/31 09:03:27;;;;;;;1.30;1.30;;;;;;;30.75;26.64;96088.25;5043941;28;20144;-64
2022/07/31 09:05:52;;;;;;;1.58;1.35;;;;;;;30.87;25.97;96077.19;5041637;28;20033;-66
2022/07/31 09:08:18;;;;;;;1.73;1.23;;;;;;;30.92;26.02;96077.22;5041152;28;20040;-66
2022/07/31 09:10:43;;;;;;;1.55;1.10;;;;;;;30.81;26.46;96079.03;5047692;28;20067;-63
2022/07/31 09:13:17;;;;;;;1.20;1.17;;;;;;;31.04;27.02;96078.91;5051301;28;20079;-64
2022/07/31 09:15:43;;;;;;;1.40;1.10;;;;;;;30.94;25.90;96069.59;5047548;28;20041;-63
2022/07/31 09:18:17;;;;;;;2.15;1.00;;;;;;;31.12;24.35;96064.81;5046703;28;20036;-64
2022/07/31 09:20:56;;;;;;;3.15;1.10;;;;;;;31.29;25.89;96061.94;5044413;28;20040;-65
2022/07/31 09:23:22;;;;;;;1.20;1.10;;;;;;;31.55;24.03;96060.09;5048875;28;20025;-63
2022/07/31 09:26:02;;;;;;;1.83;1.13;;;;;;;31.87;24.84;96066.47;5049620;28;20040;-63
2022/07/31 09:28:35;;;;;;;1.20;1.05;;;;;;;31.31;25.00;96059.78;5045944;28;20033;-63
2022/07/31 09:31:01;;;;;;;1.38;1.27;;;;;;;31.02;25.88;96060.97;5047673;28;20062;-63
2022/07/31 09:33:29;;;;;;;1.50;1.40;;;;;;;31.22;25.88;96058.63;5047147;28;20037;-62
2022/07/31 09:35:55;;;;;;;1.90;1.75;;;;;;;31.68;25.24;96057.97;5047025;28;20061;-64
2022/07/31 09:38:27;;;;;;;2.38;1.33;;;;;;;32.09;25.09;96054.50;5046201;28;20447;-63
2022/07/31 09:40:53;;;;;;;1.13;1.10;;;;;;;32.41;24.27;96056.19;5046337;28;20033;-64
2022/07/31 09:43:23;;;;;;;1.70;1.40;;;;;;;32.29;24.73;96051.78;5050374;28;20036;-63
2022/07/31 09:46:02;;;;;;;1.48;1.10;;;;;;;32.08;24.15;96047.44;5044829;28;20056;-64
2022/07/31 09:48:28;;;;;;;1.20;1.10;;;;;;;32.39;25.03;96042.03;5048175;28;20115;-63
2022/07/31 09:50:58;;;;;;;2.45;1.50;;;;;;;32.60;22.71;96050.16;5044101;28;20128;-63
2022/07/31 09:53:24;;;;;;;1.30;1.20;;;;;;;32.76;23.69;96043.59;5049906;28;20121;-63
2022/07/31 09:55:51;;;;;;;1.23;1.10;;;;;;;33.07;23.50;96049.00;5046458;28;20514;-64
2022/07/31 09:58:16;;;;;;;1.52;1.10;;;;;;;33.13;22.20;96047.88;5048740;28;20389;-64
2022/07/31 10:00:42;;;;;;;1.17;1.15;;;;;;;32.95;24.09;96041.13;5045664;28;20040;-63
2022/07/31 10:03:08;;;;;;;4.25;1.38;;;;;;;33.29;23.50;96047.81;5044043;28;20032;-64
2022/07/31 10:05:36;;;;;;;1.23;1.20;;;;;;;33.07;22.23;96050.88;5047352;28;20021;-66
2022/07/31 10:08:02;;;;;;;1.42;1.33;;;;;;;33.09;22.06;96044.06;5041264;28;20112;-65
2022/07/31 10:10:29;;;;;;;1.48;1.10;;;;;;;33.56;21.40;96047.41;5041148;28;20044;-63
2022/07/31 10:12:58;;;;;;;1.00;1.00;;;;;;;33.60;22.33;96038.66;5049570;28;20064;-65
2022/07/31 10:15:25;;;;;;;1.95;1.30;;;;;;;33.49;22.14;96040.63;5043340;28;20039;-65
2022/07/31 10:17:52;;;;;;;1.98;1.40;;;;;;;33.33;22.52;96037.13;5046338;28;20115;-64
2022/07/31 10:20:21;;;;;;;1.30;1.20;;;;;;;33.49;21.54;96035.19;5040307;28;20032;-65
2022/07/31 10:22:51;;;;;;;1.35;1.33;;;;;;;33.42;22.56;96038.22;5048625;28;20041;-66
2022/07/31 10:25:25;;;;;;;2.10;1.02;;;;;;;33.59;21.13;96040.59;5047193;28;20145;-65
2022/07/31 10:27:52;;;;;;;1.67;1.30;;;;;;;33.60;22.73;96028.56;5040865;28;20041;-66
2022/07/31 10:30:18;;;;;;;2.95;1.00;;;;;;;34.27;21.30;96028.13;5045949;28;20131;-65
2022/07/31 10:32:44;;;;;;;2.20;1.30;;;;;;;34.45;20.68;96028.50;5047098;28;20033;-65
2022/07/31 10:35:10;;;;;;;1.83;1.20;;;;;;;34.33;20.70;96030.78;5045060;28;20025;-65
2022/07/31 10:37:46;;;;;;;1.45;1.00;;;;;;;34.18;20.72;96021.66;5043610;28;20558;-65
2022/07/31 10:40:18;;;;;;;1.77;1.10;;;;;;;33.68;21.70;96019.78;5044879;28;20098;-66
2022/07/31 10:43:00;;;;;;;0.90;0.90;;;;;;;34.06;21.70;96013.84;5039838;28;20036;-66
2022/07/31 10:45:26;;;;;;;32.10;22.77;;;;;;;34.45;20.41;96016.75;5044114;28;20025;-66
2022/07/31 10:47:56;;;;;;;17.25;10.32;;;;;;;34.00;21.16;96013.06;5037465;28;20514;-66
2022/07/31 10:50:24;;;;;;;13.32;11.18;;;;;;;34.32;20.66;96007.31;5038785;28;20056;-68
2022/07/31 10:52:50;;;;;;;39.17;28.13;;;;;;;34.25;20.31;96003.00;5047650;28;20086;-69
2022/07/31 10:55:21;;;;;;;12.38;8.43;;;;;;;34.59;20.15;96011.44;5042758;28;20021;-67
2022/07/31 10:57:47;;;;;;;11.82;10.80;;;;;;;34.56;20.27;96000.00;5043414;28;20057;-69
2022/07/31 11:00:16;;;;;;;1.50;1.40;;;;;;;34.71;19.62;95995.47;5046472;28;20021;-66
2022/07/31 11:02:42;;;;;;;3.95;3.67;;;;;;;33.90;21.07;95996.69;5046218;28;20029;-68
2022/07/31 11:05:21;;;;;;;2.40;1.40;;;;;;;34.14;20.80;95996.00;5041933;28;20048;-67
2022/07/31 11:08:06;;;;;;;3.80;1.60;;;;;;;34.19;21.10;95989.69;5040560;28;20037;-67
2022/07/31 11:10:35;;;;;;;3.83;1.60;;;;;;;34.57;20.65;95987.16;5044628;28;20035;-65
2022/07/31 11:13:12;;;;;;;7.88;7.07;;;;;;;34.82;20.38;95988.81;5043526;28;20014;-66
2022/07/31 11:15:37;;;;;;;1.75;1.60;;;;;;;34.60;20.40;95986.56;5041458;28;20507;-66
2022/07/31 11:18:15;;;;;;;73.70;66.68;;;;;;;34.73;20.68;95987.78;5045638;28;20033;-66
2022/07/31 11:20:45;;;;;;;6.03;5.47;;;;;;;35.10;19.46;95989.03;5043854;28;20061;-68
2022/07/31 11:23:15;;;;;;;2.00;1.80;;;;;;;34.94;20.23;95988.38;5040525;28;20450;-67
2022/07/31 11:25:42;;;;;;;23.33;20.90;;;;;;;34.87;20.51;95985.19;5041414;28;20483;-64
2022/07/31 11:28:17;;;;;;;1.80;1.70;;;;;;;34.87;19.48;95982.44;5047160;28;21021;-64
2022/07/31 11:30:51;;;;;;;20.98;19.27;;;;;;;35.09;20.15;95987.41;5044119;28;20035;-67
2022/07/31 11:33:45;;;;;;;71.53;64.50;;;;;;;35.20;19.76;95977.16;5042372;28;20028;-69
2022/07/31 11:36:11;;;;;;;;;;;;;;;34.97;19.75;95970.56;5040015;28;20038;-68
2022/07/31 11:38:38;;;;;;;165.73;136.77;;;;;;;35.33;20.49;95970.13;5040175;28;19919;-68